createdAt,value
2023-04-18T00:00:21.663Z,83.4051
2023-04-18T00:01:29.781Z,83.4153
2023-04-18T00:02:38.003Z,83.4844
2023-04-18T00:03:46.080Z,83.2523
2023-04-18T00:04:54.032Z,83.1104
2023-04-18T00:06:01.845Z,82.7419
2023-04-18T00:07:10.076Z,83.2167
2023-04-18T00:08:17.968Z,83.1250
2023-04-18T00:09:26.378Z,82.6923
2023-04-18T00:10:34.230Z,82.4875
2023-04-18T00:11:42.148Z,82.4909
2023-04-18T00:12:50.402Z,82.6603
2023-04-18T00:13:58.460Z,81.9393
2023-04-18T00:15:06.463Z,81.3748
2023-04-18T00:16:14.593Z,80.8677
2023-04-18T00:17:22.696Z,80.4110
2023-04-18T00:18:30.704Z,80.6911
2023-04-18T00:19:38.780Z,80.4923
2023-04-18T00:20:46.782Z,80.5560
2023-04-18T00:21:54.847Z,80.2686
2023-04-18T00:23:02.767Z,80.4427
2023-04-18T00:24:11.052Z,79.8217
2023-04-18T00:25:18.907Z,79.8011
2023-04-18T00:26:27.231Z,80.3979
2023-04-18T00:27:35.159Z,80.8752
2023-04-18T00:28:43.415Z,80.4869
2023-04-18T00:29:51.305Z,80.2933
2023-04-18T00:30:59.357Z,79.6705
2023-04-18T00:32:07.433Z,79.9076
2023-04-18T00:33:15.482Z,80.4534
2023-04-18T00:34:23.625Z,80.5294
2023-04-18T00:35:31.547Z,80.0329
2023-04-18T00:36:39.687Z,79.7233
2023-04-18T00:37:47.739Z,80.5648
2023-04-18T00:38:55.982Z,80.4594
2023-04-18T00:40:03.730Z,80.4508
2023-04-18T00:41:11.910Z,80.2985
2023-04-18T00:42:19.887Z,80.3515
2023-04-18T00:43:28.321Z,80.1491
2023-04-18T00:44:36.155Z,79.5520
2023-04-18T00:45:44.201Z,79.7753
2023-04-18T00:46:52.263Z,79.9667
2023-04-18T00:48:00.391Z,79.4729
2023-04-18T00:49:08.355Z,79.8714
2023-04-18T00:50:16.449Z,79.9850
2023-04-18T00:51:24.566Z,79.7391
2023-04-18T00:52:32.535Z,79.4286
2023-04-18T00:53:40.663Z,79.2390
2023-04-18T00:54:48.702Z,79.1017
2023-04-18T00:55:56.850Z,79.0958
2023-04-18T00:57:04.687Z,79.3083
2023-04-18T00:58:12.871Z,79.2578
2023-04-18T00:59:21.009Z,79.1227
2023-04-18T01:00:29.058Z,78.6120
2023-04-18T01:01:37.141Z,78.3746
2023-04-18T01:02:45.313Z,78.5881
2023-04-18T01:03:53.353Z,78.6913
2023-04-18T01:05:01.496Z,79.2491
2023-04-18T01:06:09.329Z,79.4555
2023-04-18T01:07:17.518Z,79.1083
2023-04-18T01:08:25.362Z,78.8677
2023-04-18T01:09:33.564Z,79.4011
2023-04-18T01:10:41.761Z,79.7045
2023-04-18T01:11:49.683Z,79.4396
2023-04-18T01:12:57.903Z,79.4600
2023-04-18T01:14:05.804Z,79.7371
2023-04-18T01:15:14.186Z,79.7614
2023-04-18T01:16:21.888Z,79.5770
2023-04-18T01:17:30.186Z,79.3721
2023-04-18T01:18:38.095Z,79.5856
2023-04-18T01:19:46.114Z,80.0289
2023-04-18T01:20:54.211Z,79.9484
2023-04-18T01:22:02.366Z,79.8593
2023-04-18T01:23:10.184Z,79.6305
2023-04-18T01:24:18.379Z,79.3135
2023-04-18T01:25:26.538Z,79.2904
2023-04-18T01:26:34.509Z,79.3079
2023-04-18T01:27:42.654Z,79.3796
2023-04-18T01:28:50.602Z,79.6248
2023-04-18T01:29:58.712Z,79.6404
2023-04-18T01:31:06.788Z,79.3665
2023-04-18T01:32:14.997Z,79.4004
2023-04-18T01:33:23.033Z,79.0925
2023-04-18T01:34:30.838Z,79.1061
2023-04-18T01:35:39.024Z,79.4982
2023-04-18T01:36:47.087Z,79.2497
2023-04-18T01:37:55.190Z,79.4315
2023-04-18T01:39:03.254Z,79.2971
2023-04-18T01:40:11.152Z,79.0362
2023-04-18T01:41:19.439Z,79.2266
2023-04-18T01:42:27.410Z,79.2787
2023-04-18T01:43:35.446Z,79.8049
2023-04-18T01:44:43.588Z,80.1206
2023-04-18T01:45:51.442Z,80.0859
2023-04-18T01:46:59.682Z,79.8909
2023-04-18T01:48:07.755Z,80.1895
2023-04-18T01:49:15.791Z,80.0723
2023-04-18T01:50:23.867Z,80.2079
2023-04-18T01:51:32.047Z,80.5598
2023-04-18T01:52:39.974Z,80.7322
2023-04-18T01:53:47.933Z,80.5310
2023-04-18T01:54:56.238Z,80.9920
2023-04-18T01:56:04.189Z,80.9082
2023-04-18T01:57:12.124Z,81.3581
2023-04-18T01:58:20.311Z,81.1969
2023-04-18T01:59:28.253Z,81.0982
2023-04-18T02:00:36.482Z,80.9448
2023-04-18T02:01:44.682Z,80.8453
2023-04-18T02:02:52.569Z,80.3551
2023-04-18T02:04:00.755Z,80.3836
2023-04-18T02:05:08.576Z,80.1308
2023-04-18T02:06:16.771Z,80.4132
2023-04-18T02:07:24.868Z,80.4894
2023-04-18T02:08:32.895Z,80.1651
2023-04-18T02:09:40.979Z,80.3089
2023-04-18T02:10:48.911Z,80.3846
2023-04-18T02:11:57.147Z,80.5406
2023-04-18T02:13:05.288Z,80.9659
2023-04-18T02:14:13.403Z,80.4453
2023-04-18T02:15:21.368Z,80.7399
2023-04-18T02:16:29.394Z,81.1021
2023-04-18T02:17:37.518Z,81.3935
2023-04-18T02:18:45.501Z,81.2387
2023-04-18T02:19:53.593Z,80.8390
2023-04-18T02:21:01.634Z,80.7380
2023-04-18T02:22:09.688Z,81.0355
2023-04-18T02:23:17.843Z,81.1260
2023-04-18T02:24:25.825Z,81.1170
2023-04-18T02:25:33.901Z,81.5535
2023-04-18T02:26:42.001Z,81.4244
2023-04-18T02:27:50.051Z,81.3618
2023-04-18T02:28:58.266Z,81.2787
2023-04-18T02:30:06.302Z,81.5207
2023-04-18T02:31:14.119Z,81.2668
2023-04-18T02:32:22.346Z,81.6810
2023-04-18T02:33:30.406Z,81.8436
2023-04-18T02:34:38.528Z,81.3701
2023-04-18T02:35:46.500Z,81.1253
2023-04-18T02:36:54.439Z,80.8441
2023-04-18T02:38:02.777Z,81.0005
2023-04-18T02:39:10.876Z,81.0492
2023-04-18T02:40:18.660Z,80.9642
2023-04-18T02:41:26.836Z,80.6339
2023-04-18T02:42:34.925Z,80.7823
2023-04-18T02:43:42.963Z,81.2039
2023-04-18T02:44:51.019Z,81.3921
2023-04-18T02:45:59.161Z,80.9166
2023-04-18T02:47:07.218Z,80.7754
2023-04-18T02:48:15.261Z,81.0999
2023-04-18T02:49:23.389Z,81.8024
2023-04-18T02:50:31.296Z,81.6395
2023-04-18T02:51:39.413Z,81.2547
2023-04-18T02:52:47.436Z,81.5945
2023-04-18T02:53:55.388Z,81.3302
2023-04-18T02:55:03.578Z,81.0461
2023-04-18T02:56:11.827Z,81.3761
2023-04-18T02:57:19.599Z,81.3211
2023-04-18T02:58:27.782Z,81.5873
2023-04-18T02:59:35.952Z,81.8829
2023-04-18T03:00:43.949Z,82.0315
2023-04-18T03:01:51.943Z,81.7551
2023-04-18T03:03:00.216Z,82.0412
2023-04-18T03:04:08.054Z,82.1475
2023-04-18T03:05:16.128Z,81.6904
2023-04-18T03:06:24.207Z,81.5837
2023-04-18T03:07:32.237Z,81.7736
2023-04-18T03:08:40.228Z,81.5007
2023-04-18T03:09:48.396Z,81.5525
2023-04-18T03:10:56.514Z,81.5748
2023-04-18T03:12:04.582Z,81.4690
2023-04-18T03:13:12.597Z,81.6985
2023-04-18T03:14:20.702Z,81.8766
2023-04-18T03:15:28.676Z,82.0697
2023-04-18T03:16:36.755Z,81.9409
2023-04-18T03:17:44.707Z,82.2644
2023-04-18T03:18:53.015Z,82.3192
2023-04-18T03:20:00.862Z,82.0032
2023-04-18T03:21:09.027Z,82.0038
2023-04-18T03:22:17.059Z,82.0092
2023-04-18T03:23:25.092Z,81.6479
2023-04-18T03:24:33.174Z,81.6268
2023-04-18T03:25:41.291Z,81.8064
2023-04-18T03:26:49.334Z,81.7164
2023-04-18T03:27:57.405Z,81.4306
2023-04-18T03:29:05.306Z,81.4819
2023-04-18T03:30:13.534Z,81.7126
2023-04-18T03:31:21.625Z,81.7170
2023-04-18T03:32:29.664Z,81.8135
2023-04-18T03:33:37.684Z,81.7663
2023-04-18T03:34:45.856Z,81.3663
2023-04-18T03:35:53.828Z,81.0845
2023-04-18T03:37:01.844Z,81.2489
2023-04-18T03:38:09.974Z,81.1331
2023-04-18T03:39:18.013Z,80.8655
2023-04-18T03:40:26.104Z,80.6717
2023-04-18T03:41:34.137Z,80.5158
2023-04-18T03:42:42.259Z,80.5780
2023-04-18T03:43:50.227Z,80.9284
2023-04-18T03:44:58.388Z,80.8971
2023-04-18T03:46:06.563Z,81.2160
2023-04-18T03:47:14.459Z,81.2140
2023-04-18T03:48:22.427Z,81.0882
2023-04-18T03:49:30.647Z,81.1238
2023-04-18T03:50:38.672Z,81.2544
2023-04-18T03:51:46.692Z,81.5011
2023-04-18T03:52:54.797Z,81.0890
2023-04-18T03:54:02.740Z,80.5310
2023-04-18T03:55:11.156Z,80.4561
2023-04-18T03:56:18.936Z,80.4839
2023-04-18T03:57:27.234Z,80.6688
2023-04-18T03:58:35.113Z,80.9487
2023-04-18T03:59:43.212Z,80.8729
2023-04-18T04:00:51.280Z,80.8307
2023-04-18T04:01:59.353Z,80.8850
2023-04-18T04:03:07.527Z,81.2094
2023-04-18T04:04:15.777Z,81.1923
2023-04-18T04:05:23.546Z,81.2371
2023-04-18T04:06:31.499Z,81.1092
2023-04-18T04:07:39.531Z,80.8748
2023-04-18T04:08:47.608Z,81.0386
2023-04-18T04:09:55.680Z,80.7958
2023-04-18T04:11:03.829Z,80.9592
2023-04-18T04:12:11.872Z,81.1010
2023-04-18T04:13:20.009Z,81.1324
2023-04-18T04:14:27.859Z,81.2993
2023-04-18T04:15:36.029Z,81.4308
2023-04-18T04:16:44.148Z,81.3024
2023-04-18T04:17:52.182Z,81.0595
2023-04-18T04:19:00.190Z,81.3353
2023-04-18T04:20:08.230Z,81.0897
2023-04-18T04:21:16.300Z,81.3027
2023-04-18T04:22:24.435Z,81.9094
2023-04-18T04:23:32.429Z,81.7714
2023-04-18T04:24:40.614Z,81.8684
2023-04-18T04:25:48.537Z,81.9095
2023-04-18T04:26:56.653Z,81.8768
2023-04-18T04:28:04.750Z,81.6018
2023-04-18T04:29:12.752Z,81.4464
2023-04-18T04:30:20.803Z,81.5547
2023-04-18T04:31:28.883Z,81.9544
2023-04-18T04:32:37.021Z,81.7857
2023-04-18T04:33:45.046Z,81.1838
2023-04-18T04:34:53.042Z,80.6712
2023-04-18T04:36:01.256Z,80.3548
2023-04-18T04:37:09.188Z,80.1616
2023-04-18T04:38:17.291Z,80.1309
2023-04-18T04:39:25.396Z,80.7018
2023-04-18T04:40:33.380Z,81.1764
2023-04-18T04:41:41.494Z,81.2897
2023-04-18T04:42:49.494Z,80.9668
2023-04-18T04:43:57.527Z,81.5130
2023-04-18T04:45:05.779Z,81.0061
2023-04-18T04:46:13.718Z,80.3554
2023-04-18T04:47:21.746Z,80.3011
2023-04-18T04:48:29.800Z,80.1410
2023-04-18T04:49:37.938Z,80.2920
2023-04-18T04:50:46.035Z,80.4673
2023-04-18T04:51:53.924Z,80.6029
2023-04-18T04:53:02.104Z,81.1380
2023-04-18T04:54:10.223Z,81.7186
2023-04-18T04:55:18.174Z,81.5807
2023-04-18T04:56:26.273Z,81.5029
2023-04-18T04:57:34.336Z,81.7687
2023-04-18T04:58:42.391Z,81.9345
2023-04-18T04:59:50.438Z,81.5186
2023-04-18T05:00:58.462Z,81.1945
2023-04-18T05:02:06.669Z,81.2996
2023-04-18T05:03:14.933Z,81.0152
2023-04-18T05:04:22.843Z,81.0628
2023-04-18T05:05:30.744Z,81.0322
2023-04-18T05:06:40.306Z,81.0490
2023-04-18T05:07:46.946Z,80.7408
2023-04-18T05:08:55.029Z,80.9801
2023-04-18T05:10:03.135Z,81.5361
2023-04-18T05:11:11.139Z,81.5505
2023-04-18T05:12:19.205Z,81.5044
2023-04-18T05:13:27.419Z,80.9628
2023-04-18T05:14:35.285Z,80.7688
2023-04-18T05:15:43.387Z,81.1923
2023-04-18T05:16:51.479Z,81.0547
2023-04-18T05:17:59.533Z,81.0830
2023-04-18T05:19:07.615Z,80.8881
2023-04-18T05:20:15.576Z,80.9241
2023-04-18T05:21:23.682Z,81.0606
2023-04-18T05:22:31.748Z,81.1136
2023-04-18T05:23:39.846Z,81.1456
2023-04-18T05:24:48.054Z,80.8801
2023-04-18T05:25:56.176Z,80.5631
2023-04-18T05:27:04.021Z,80.3182
2023-04-18T05:28:12.069Z,79.8660
2023-04-18T05:29:20.123Z,79.9037
2023-04-18T05:30:28.208Z,80.0743
2023-04-18T05:31:36.313Z,80.4543
2023-04-18T05:32:44.366Z,80.7819
2023-04-18T05:33:52.483Z,80.8477
2023-04-18T05:35:00.492Z,81.0283
2023-04-18T05:36:08.535Z,80.9581
2023-04-18T05:37:16.566Z,80.7092
2023-04-18T05:38:24.629Z,80.9836
2023-04-18T05:39:32.702Z,81.1211
2023-04-18T05:40:40.762Z,80.9315
2023-04-18T05:41:48.849Z,81.0314
2023-04-18T05:42:56.892Z,81.3962
2023-04-18T05:44:05.929Z,81.8937
2023-04-18T05:45:13.013Z,81.6574
2023-04-18T05:46:21.077Z,81.0104
2023-04-18T05:47:29.228Z,81.1654
2023-04-18T05:48:37.226Z,81.3198
2023-04-18T05:49:45.229Z,81.0258
2023-04-18T05:50:53.332Z,81.0285
2023-04-18T05:52:01.384Z,80.9278
2023-04-18T05:53:09.532Z,80.9369
2023-04-18T05:54:17.606Z,81.2803
2023-04-18T05:55:25.546Z,80.9886
2023-04-18T05:56:33.679Z,81.0904
2023-04-18T05:57:41.776Z,81.1467
2023-04-18T05:58:49.820Z,80.9327
2023-04-18T05:59:57.868Z,80.9090
2023-04-18T06:01:05.848Z,81.1273
2023-04-18T06:02:14.039Z,81.2568
2023-04-18T06:03:22.280Z,81.1434
2023-04-18T06:04:30.412Z,81.5221
2023-04-18T06:05:38.356Z,81.2206
2023-04-18T06:06:46.248Z,80.5687
2023-04-18T06:07:54.305Z,80.3329
2023-04-18T06:09:02.444Z,80.8653
2023-04-18T06:10:10.459Z,81.2570
2023-04-18T06:11:18.424Z,81.6685
2023-04-18T06:12:26.485Z,81.8899
2023-04-18T06:13:34.631Z,82.0129
2023-04-18T06:14:42.729Z,81.7766
2023-04-18T06:15:50.726Z,81.2246
2023-04-18T06:16:58.825Z,80.9368
2023-04-18T06:18:06.875Z,81.0389
2023-04-18T06:19:14.969Z,81.2388
2023-04-18T06:20:23.114Z,81.0923
2023-04-18T06:21:31.076Z,81.0411
2023-04-18T06:22:39.154Z,81.1351
2023-04-18T06:23:47.335Z,81.1709
2023-04-18T06:24:55.280Z,80.9932
2023-04-18T06:26:03.381Z,80.8742
2023-04-18T06:27:20.731Z,80.7603
2023-04-18T06:28:24.358Z,80.4617
2023-04-18T06:29:32.346Z,80.3914
2023-04-18T06:30:40.469Z,80.3200
2023-04-18T06:31:48.648Z,80.1276
2023-04-18T06:32:56.584Z,80.1803
2023-04-18T06:34:04.671Z,80.8115
2023-04-18T06:35:12.840Z,80.8277
2023-04-18T06:36:20.810Z,80.8085
2023-04-18T06:37:28.817Z,80.3840
2023-04-18T06:38:36.895Z,80.2289
2023-04-18T06:39:45.216Z,80.5278
2023-04-18T06:40:53.053Z,80.6248
2023-04-18T06:42:01.142Z,80.4375
2023-04-18T06:43:09.232Z,80.8693
2023-04-18T06:44:17.307Z,80.8207
2023-04-18T06:45:25.403Z,80.9161
2023-04-18T06:46:33.391Z,80.8070
2023-04-18T06:47:41.414Z,80.8079
2023-04-18T06:48:51.047Z,80.4613
2023-04-18T06:49:57.571Z,80.1987
2023-04-18T06:51:05.695Z,80.1419
2023-04-18T06:52:13.734Z,80.1105
2023-04-18T06:53:21.671Z,80.4692
2023-04-18T06:54:29.844Z,80.0617
2023-04-18T06:55:37.997Z,79.9417
2023-04-18T06:56:45.976Z,80.1926
2023-04-18T06:57:54.025Z,80.2252
2023-04-18T06:59:02.140Z,80.1180
2023-04-18T07:00:10.098Z,80.1910
2023-04-18T07:01:18.373Z,80.2897
2023-04-18T07:02:26.356Z,80.2885
2023-04-18T07:03:34.391Z,80.4151
2023-04-18T07:04:42.366Z,79.9085
2023-04-18T07:05:50.502Z,79.6689
2023-04-18T07:06:58.561Z,79.7868
2023-04-18T07:08:06.570Z,79.6695
2023-04-18T07:09:14.630Z,79.8144
2023-04-18T07:10:22.592Z,80.2264
2023-04-18T07:11:30.790Z,80.3622
2023-04-18T07:12:38.734Z,80.1215
2023-04-18T07:13:46.785Z,80.0658
2023-04-18T07:14:54.907Z,79.7566
2023-04-18T07:16:02.953Z,79.8266
2023-04-18T07:17:11.204Z,79.6692
2023-04-18T07:18:30.262Z,79.4418
2023-04-18T07:19:32.054Z,79.8142
2023-04-18T07:20:40.068Z,79.7658
2023-04-18T07:21:48.204Z,79.4133
2023-04-18T07:22:56.246Z,78.8797
2023-04-18T07:24:04.264Z,78.6372
2023-04-18T07:25:12.222Z,78.5776
2023-04-18T07:26:20.379Z,79.0265
2023-04-18T07:27:28.463Z,78.7681
2023-04-18T07:28:36.532Z,79.4515
2023-04-18T07:29:44.570Z,79.7402
2023-04-18T07:30:52.583Z,79.9150
2023-04-18T07:32:00.687Z,80.2911
2023-04-18T07:33:08.814Z,79.7618
2023-04-18T07:34:16.836Z,79.5834
2023-04-18T07:35:24.856Z,79.6793
2023-04-18T07:36:32.860Z,79.3690
2023-04-18T07:37:41.115Z,79.1957
2023-04-18T07:38:49.065Z,78.9554
2023-04-18T07:39:57.143Z,79.1687
2023-04-18T07:41:05.180Z,79.2598
2023-04-18T07:42:13.190Z,79.5033
2023-04-18T07:43:21.312Z,79.1386
2023-04-18T07:44:29.382Z,78.0948
2023-04-18T07:45:37.494Z,77.8001
2023-04-18T07:46:45.604Z,77.6428
2023-04-18T07:47:53.557Z,77.9092
2023-04-18T07:49:01.646Z,77.5767
2023-04-18T07:50:09.704Z,77.4375
2023-04-18T07:51:17.730Z,77.8197
2023-04-18T07:52:25.840Z,78.1354
2023-04-18T07:53:33.820Z,78.1927
2023-04-18T07:54:41.923Z,78.3256
2023-04-18T07:55:50.330Z,78.2095
2023-04-18T07:56:58.169Z,78.1337
2023-04-18T07:58:06.148Z,77.9382
2023-04-18T07:59:14.325Z,77.4824
2023-04-18T08:00:22.183Z,77.6174
2023-04-18T08:01:30.313Z,78.0756
2023-04-18T08:02:38.572Z,77.4871
2023-04-18T08:03:46.577Z,76.7197
2023-04-18T08:04:54.980Z,76.7848
2023-04-18T08:06:02.585Z,77.1924
2023-04-18T08:07:10.676Z,77.2776
2023-04-18T08:08:18.853Z,76.7199
2023-04-18T08:09:26.729Z,76.3485
2023-04-18T08:10:34.720Z,75.8997
2023-04-18T08:11:42.867Z,75.7118
2023-04-18T08:12:50.942Z,75.3585
2023-04-18T08:13:59.036Z,75.2403
2023-04-18T08:15:07.076Z,74.6968
2023-04-18T08:16:17.359Z,73.9486
2023-04-18T08:17:23.207Z,74.4692
2023-04-18T08:18:31.248Z,74.3579
2023-04-18T08:19:39.205Z,74.3138
2023-04-18T08:20:47.517Z,73.9032
2023-04-18T08:21:55.442Z,74.0387
2023-04-18T08:23:08.642Z,73.3425
2023-04-18T08:24:16.376Z,73.8333
2023-04-18T08:25:24.515Z,74.2464
2023-04-18T08:26:32.554Z,74.8320
2023-04-18T08:27:40.678Z,74.5708
2023-04-18T08:28:48.554Z,74.6378
2023-04-18T08:29:56.810Z,74.6815
2023-04-18T08:31:04.743Z,74.5986
2023-04-18T08:32:12.901Z,74.4798
2023-04-18T08:33:20.901Z,74.4967
2023-04-18T08:34:28.935Z,75.2180
2023-04-18T08:35:36.957Z,75.9726
2023-04-18T08:36:45.046Z,76.0244
2023-04-18T08:37:53.019Z,76.2517
2023-04-18T08:39:01.203Z,76.2780
2023-04-18T08:40:09.163Z,76.3717
2023-04-18T08:41:17.415Z,75.4931
2023-04-18T08:42:25.396Z,75.8401
2023-04-18T08:43:33.326Z,76.3689
2023-04-18T08:44:41.475Z,76.0102
2023-04-18T08:45:49.434Z,75.4478
2023-04-18T08:46:57.640Z,75.3538
2023-04-18T08:48:05.586Z,75.7792
2023-04-18T08:49:13.798Z,75.4824
2023-04-18T08:50:21.823Z,74.7930
2023-04-18T08:51:29.770Z,74.8981
2023-04-18T08:52:38.020Z,74.9062
2023-04-18T08:53:46.030Z,74.7613
2023-04-18T08:54:53.969Z,73.9821
2023-04-18T08:56:02.022Z,73.3613
2023-04-18T08:57:10.029Z,73.0632
2023-04-18T08:58:18.087Z,72.6306
2023-04-18T08:59:26.185Z,72.4927
2023-04-18T09:00:34.160Z,72.4203
2023-04-18T09:01:42.313Z,72.7779
2023-04-18T09:02:50.437Z,72.3478
2023-04-18T09:03:58.504Z,72.3455
2023-04-18T09:05:06.466Z,72.0599
2023-04-18T09:06:14.442Z,72.5486
2023-04-18T09:07:22.613Z,72.9153
2023-04-18T09:08:30.747Z,73.0723
2023-04-18T09:09:38.690Z,73.1377
2023-04-18T09:10:46.913Z,73.0173
2023-04-18T09:11:54.716Z,72.9611
2023-04-18T09:13:02.890Z,72.6606
2023-04-18T09:14:11.240Z,71.8291
2023-04-18T09:15:19.003Z,71.8888
2023-04-18T09:16:27.125Z,71.9966
2023-04-18T09:17:35.118Z,71.7019
2023-04-18T09:18:43.228Z,71.7039
2023-04-18T09:19:51.348Z,71.4644
2023-04-18T09:20:59.440Z,71.2132
2023-04-18T09:22:07.397Z,71.8390
2023-04-18T09:23:15.399Z,72.3493
2023-04-18T09:24:23.688Z,72.6651
2023-04-18T09:25:31.717Z,72.5270
2023-04-18T09:26:39.623Z,72.5077
2023-04-18T09:27:47.718Z,72.1675
2023-04-18T09:28:55.674Z,72.0141
2023-04-18T09:30:03.876Z,71.6620
2023-04-18T09:31:12.188Z,71.4639
2023-04-18T09:32:19.992Z,71.6743
2023-04-18T09:33:28.117Z,71.5353
2023-04-18T09:34:35.965Z,70.9586
2023-04-18T09:35:44.177Z,70.5048
2023-04-18T09:36:52.292Z,70.3548
2023-04-18T09:38:00.349Z,70.2789
2023-04-18T09:39:08.297Z,70.6975
2023-04-18T09:40:16.264Z,70.2874
2023-04-18T09:41:24.403Z,70.4518
2023-04-18T09:42:32.486Z,70.8680
2023-04-18T09:43:40.404Z,71.6278
2023-04-18T09:44:48.486Z,70.7594
2023-04-18T09:45:56.617Z,69.7601
2023-04-18T09:47:04.715Z,69.9788
2023-04-18T09:48:12.781Z,69.9528
2023-04-18T09:49:20.713Z,69.7063
2023-04-18T09:50:28.838Z,69.8235
2023-04-18T09:51:36.949Z,70.5037
2023-04-18T09:52:45.301Z,70.9020
2023-04-18T09:53:53.037Z,71.3777
2023-04-18T09:55:01.210Z,71.3875
2023-04-18T09:56:09.197Z,71.6163
2023-04-18T09:57:17.186Z,71.5155
2023-04-18T09:58:25.205Z,71.1875
2023-04-18T09:59:33.191Z,70.9781
2023-04-18T10:00:41.376Z,70.7655
2023-04-18T10:01:49.482Z,70.4208
2023-04-18T10:02:57.502Z,69.7414
2023-04-18T10:04:05.552Z,69.3433
2023-04-18T10:05:13.803Z,69.0504
2023-04-18T10:06:21.559Z,68.4385
2023-04-18T10:07:29.702Z,68.0647
2023-04-18T10:08:37.762Z,68.2541
2023-04-18T10:09:45.781Z,68.0637
2023-04-18T10:10:53.917Z,68.3573
2023-04-18T10:12:02.073Z,67.7798
2023-04-18T10:13:09.995Z,67.7461
2023-04-18T10:14:18.259Z,67.4059
2023-04-18T10:15:26.047Z,67.0341
2023-04-18T10:16:35.654Z,66.9345
2023-04-18T10:17:52.551Z,66.2045
2023-04-18T10:18:55.157Z,66.3869
2023-04-18T10:20:03.180Z,66.6917
2023-04-18T10:21:11.186Z,66.3441
2023-04-18T10:22:19.348Z,65.4937
2023-04-18T10:23:28.174Z,65.4907
2023-04-18T10:24:35.344Z,65.0417
2023-04-18T10:25:43.475Z,65.5846
2023-04-18T10:26:51.447Z,63.4453
2023-04-18T10:27:59.622Z,61.7229
2023-04-18T10:29:07.644Z,61.3499
2023-04-18T10:30:15.632Z,59.8676
2023-04-18T10:31:23.864Z,57.9757
2023-04-18T10:32:31.801Z,56.6382
2023-04-18T10:33:42.442Z,56.6932
2023-04-18T10:34:52.807Z,56.4580
2023-04-18T10:36:01.037Z,57.9718
2023-04-18T10:37:08.938Z,59.1855
2023-04-18T10:38:17.006Z,59.8756
2023-04-18T10:39:25.059Z,60.5307
2023-04-18T10:40:33.078Z,60.4251
2023-04-18T10:41:41.304Z,59.7555
2023-04-18T10:42:49.217Z,60.3733
2023-04-18T10:43:57.239Z,61.6165
2023-04-18T10:45:05.605Z,62.2295
2023-04-18T10:46:24.270Z,62.8377
2023-04-18T10:47:26.331Z,60.8969
2023-04-18T10:48:38.459Z,59.1809
2023-04-18T10:49:47.384Z,58.8349
2023-04-18T10:50:55.240Z,58.2373
2023-04-18T10:52:03.362Z,55.6837
2023-04-18T10:53:11.407Z,54.2151
2023-04-18T10:54:19.545Z,53.7663
2023-04-18T10:55:27.592Z,53.1489
2023-04-18T10:56:35.578Z,52.5094
2023-04-18T10:57:43.696Z,53.3435
2023-04-18T10:58:51.741Z,55.3958
2023-04-18T10:59:59.693Z,57.1176
2023-04-18T11:01:07.963Z,57.0619
2023-04-18T11:02:15.786Z,55.6027
2023-04-18T11:03:23.986Z,55.4557
2023-04-18T11:04:32.011Z,54.5488
2023-04-18T11:05:40.063Z,53.8077
2023-04-18T11:06:48.130Z,54.2718
2023-04-18T11:07:56.090Z,56.0985
2023-04-18T11:09:04.350Z,57.4621
2023-04-18T11:10:12.335Z,58.9847
2023-04-18T11:11:20.368Z,59.2274
2023-04-18T11:12:28.477Z,60.3203
2023-04-18T11:13:36.341Z,60.8937
2023-04-18T11:14:44.497Z,60.6695
2023-04-18T11:15:52.645Z,61.5165
2023-04-18T11:17:00.575Z,62.0993
2023-04-18T11:18:08.718Z,62.4095
2023-04-18T11:19:16.920Z,62.2859
2023-04-18T11:20:24.772Z,62.0268
2023-04-18T11:21:32.883Z,61.7820
2023-04-18T11:22:40.828Z,61.0029
2023-04-18T11:23:49.011Z,59.7689
2023-04-18T11:24:57.044Z,60.7253
2023-04-18T11:26:05.064Z,61.4501
2023-04-18T11:27:13.091Z,61.5073
2023-04-18T11:28:21.207Z,62.5015
2023-04-18T11:29:29.234Z,62.9453
2023-04-18T11:30:37.213Z,63.5017
2023-04-18T11:31:45.535Z,63.4043
2023-04-18T11:32:53.396Z,63.5761
2023-04-18T11:34:01.352Z,63.5792
2023-04-18T11:35:09.544Z,63.7544
2023-04-18T11:36:17.570Z,64.5450
2023-04-18T11:37:25.626Z,64.0557
2023-04-18T11:38:33.636Z,64.2675
2023-04-18T11:39:41.682Z,63.5408
2023-04-18T11:40:49.920Z,63.3775
2023-04-18T11:41:57.737Z,63.0925
2023-04-18T11:43:05.857Z,62.5056
2023-04-18T11:44:13.954Z,63.2785
2023-04-18T11:45:22.076Z,62.4597
2023-04-18T11:46:30.184Z,61.2777
2023-04-18T11:47:38.199Z,60.2141
2023-04-18T11:48:46.070Z,59.8672
2023-04-18T11:49:56.500Z,58.8357
2023-04-18T11:51:07.365Z,56.1673
2023-04-18T11:52:15.207Z,55.8275
2023-04-18T11:53:23.154Z,54.1169
2023-04-18T11:54:31.266Z,54.2315
2023-04-18T11:55:39.342Z,53.1569
2023-04-18T11:56:47.372Z,53.7623
2023-04-18T11:57:55.543Z,52.6786
2023-04-18T11:59:03.630Z,51.5952
2023-04-18T12:00:11.519Z,51.1604
2023-04-18T12:01:19.720Z,51.6451
2023-04-18T12:02:27.857Z,52.4536
2023-04-18T12:03:35.950Z,53.9061
2023-04-18T12:04:44.088Z,55.2432
2023-04-18T12:05:51.993Z,56.4342
2023-04-18T12:06:59.930Z,56.3290
2023-04-18T12:08:08.164Z,56.9574
2023-04-18T12:09:15.970Z,56.3950
2023-04-18T12:10:24.074Z,56.2477
2023-04-18T12:11:32.182Z,55.4040
2023-04-18T12:12:40.202Z,54.5622
2023-04-18T12:13:48.277Z,54.6248
2023-04-18T12:14:56.329Z,55.1340
2023-04-18T12:16:04.389Z,54.6608
2023-04-18T12:17:12.511Z,54.5748
2023-04-18T12:18:20.483Z,55.3457
2023-04-18T12:19:28.613Z,55.7756
2023-04-18T12:20:36.601Z,55.4400
2023-04-18T12:21:44.631Z,55.6123
2023-04-18T12:22:52.651Z,55.6303
2023-04-18T12:24:00.758Z,55.5194
2023-04-18T12:25:08.883Z,56.4683
2023-04-18T12:26:16.835Z,55.5501
2023-04-18T12:27:24.953Z,54.8929
2023-04-18T12:28:33.031Z,53.8422
2023-04-18T12:29:41.018Z,51.8311
2023-04-18T12:30:49.137Z,50.9521
2023-04-18T12:31:57.187Z,49.3724
2023-04-18T12:33:05.265Z,47.2543
2023-04-18T12:34:13.433Z,45.7273
2023-04-18T12:35:21.250Z,45.8645
2023-04-18T12:36:29.423Z,44.4427
2023-04-18T12:37:37.526Z,44.2811
2023-04-18T12:38:45.481Z,44.4810
2023-04-18T12:39:53.601Z,45.6936
2023-04-18T12:41:01.617Z,44.9293
2023-04-18T12:42:09.697Z,45.3452
2023-04-18T12:43:17.659Z,44.2737
2023-04-18T12:44:25.758Z,45.5133
2023-04-18T12:45:33.735Z,47.2435
2023-04-18T12:46:41.869Z,48.6687
2023-04-18T12:47:50.016Z,49.3344
2023-04-18T12:48:57.973Z,49.5069
2023-04-18T12:50:06.103Z,49.1273
2023-04-18T12:51:14.093Z,49.2170
2023-04-18T12:52:22.071Z,48.4337
2023-04-18T12:53:30.277Z,48.9358
2023-04-18T12:54:38.286Z,49.5073
2023-04-18T12:55:46.321Z,50.3725
2023-04-18T12:56:54.409Z,49.1306
2023-04-18T12:58:02.572Z,48.3968
2023-04-18T12:59:10.565Z,47.1004
2023-04-18T13:00:18.504Z,46.0767
2023-04-18T13:01:26.766Z,44.8632
2023-04-18T13:02:34.845Z,44.9912
2023-04-18T13:03:42.770Z,44.5174
2023-04-18T13:04:50.953Z,45.1104
2023-04-18T13:05:58.794Z,45.9400
2023-04-18T13:07:06.920Z,46.6505
2023-04-18T13:08:17.677Z,45.8324
2023-04-18T13:09:27.918Z,44.8802
2023-04-18T13:10:36.163Z,44.5696
2023-04-18T13:11:43.958Z,44.2628
2023-04-18T13:12:52.040Z,43.7695
2023-04-18T13:14:00.168Z,44.0420
2023-04-18T13:15:08.176Z,45.2994
2023-04-18T13:16:16.294Z,46.2542
2023-04-18T13:17:24.289Z,47.5465
2023-04-18T13:18:32.294Z,46.8423
2023-04-18T13:19:40.463Z,46.0030
2023-04-18T13:20:48.544Z,45.8261
2023-04-18T13:21:56.688Z,45.1982
2023-04-18T13:23:04.694Z,44.5222
2023-04-18T13:24:12.621Z,43.1171
2023-04-18T13:25:20.726Z,42.4076
2023-04-18T13:26:28.836Z,41.8981
2023-04-18T13:27:37.358Z,41.4583
2023-04-18T13:28:44.891Z,41.4773
2023-04-18T13:29:52.979Z,41.3736
2023-04-18T13:31:01.200Z,41.4103
2023-04-18T13:32:09.301Z,41.6372
2023-04-18T13:33:17.251Z,42.5443
2023-04-18T13:34:25.399Z,42.2794
2023-04-18T13:35:33.325Z,41.4372
2023-04-18T13:36:41.402Z,41.0728
2023-04-18T13:37:49.552Z,41.4163
2023-04-18T13:38:57.523Z,42.3353
2023-04-18T13:40:05.589Z,41.4783
2023-04-18T13:41:13.911Z,40.9768
2023-04-18T13:42:21.701Z,39.9739
2023-04-18T13:43:29.789Z,39.4064